Time;durP1;ratioP1;P1;durP2;ratioP2;P2;SDS_P1;SDS_P2;PMS_P1;PMS_P2;Temp;Humidity;BMP_temperature;BMP_pressure;BME280_temperature;BME280_humidity;BME280_pressure;Samples;Min_cycle;Max_cycle;Signal;HPM_P1;HPM_P2
2023/07/08 00:00:57;;;;;;;5.00;4.10;;;17.20;77.20;;;;;;5045854;28;20473;-47
2023/07/08 00:03:23;;;;;;;8.27;3.78;;;17.20;77.50;;;;;;5051395;28;20029;-49
2023/07/08 00:05:55;;;;;;;7.10;3.95;;;17.10;77.70;;;;;;5047627;28;20064;-48
2023/07/08 00:08:22;;;;;;;7.53;4.32;;;17.10;77.80;;;;;;5038185;28;20099;-47
2023/07/08 00:10:49;;;;;;;7.55;5.00;;;17.10;78.00;;;;;;5045222;28;20029;-48
2023/07/08 00:13:15;;;;;;;7.50;3.90;;;17.10;78.10;;;;;;5051362;28;20053;-47
2023/07/08 00:15:42;;;;;;;9.02;5.00;;;17.10;78.40;;;;;;5053874;28;20068;-47
2023/07/08 00:18:14;;;;;;;7.03;4.60;;;17.00;78.50;;;;;;5050335;28;20106;-47
2023/07/08 00:20:46;;;;;;;7.35;4.10;;;17.00;78.80;;;;;;5061557;28;20033;-51
2023/07/08 00:23:14;;;;;;;5.55;3.50;;;17.10;78.90;;;;;;5071648;28;20042;-49
2023/07/08 00:25:42;;;;;;;9.60;4.03;;;17.00;79.20;;;;;;5074336;28;20033;-47
2023/07/08 00:28:17;;;;;;;7.30;4.07;;;17.00;79.40;;;;;;5075979;28;20035;-47
2023/07/08 00:30:44;;;;;;;6.88;4.10;;;17.00;79.00;;;;;;5074839;28;20070;-47
2023/07/08 00:33:11;;;;;;;6.22;4.22;;;16.90;79.10;;;;;;5071563;28;20024;-48
2023/07/08 00:35:42;;;;;;;7.82;4.40;;;16.90;79.20;;;;;;5073511;28;20040;-48
2023/07/08 00:38:20;;;;;;;8.63;4.22;;;16.90;79.20;;;;;;5056281;28;20025;-47
2023/07/08 00:40:52;;;;;;;5.93;3.33;;;16.90;79.70;;;;;;5071887;28;20037;-49
2023/07/08 00:43:23;;;;;;;6.05;4.82;;;16.90;80.00;;;;;;5073413;28;20025;-48
2023/07/08 00:46:01;;;;;;;7.47;4.50;;;16.90;80.40;;;;;;5071006;28;21031;-47
2023/07/08 00:48:35;;;;;;;6.00;4.30;;;16.90;80.80;;;;;;5076134;28;20021;-50
2023/07/08 00:51:04;;;;;;;8.20;3.80;;;16.80;80.90;;;;;;5074699;28;20086;-48
2023/07/08 00:53:33;;;;;;;5.35;3.88;;;16.80;81.30;;;;;;5053287;28;20036;-46
2023/07/08 00:56:17;;;;;;;5.90;4.63;;;16.80;81.30;;;;;;5074478;28;20048;-47
2023/07/08 00:58:49;;;;;;;8.82;4.93;;;16.70;81.60;;;;;;5075734;28;20155;-46
2023/07/08 01:01:18;;;;;;;8.00;4.15;;;16.70;81.80;;;;;;5067543;28;20535;-47
2023/07/08 01:03:50;;;;;;;8.45;5.05;;;16.60;81.90;;;;;;5071937;28;20036;-47
2023/07/08 01:06:19;;;;;;;8.82;5.22;;;16.60;82.20;;;;;;5075488;28;20327;-47
2023/07/08 01:08:50;;;;;;;8.50;5.53;;;16.60;82.50;;;;;;5061852;28;20107;-48
2023/07/08 01:11:17;;;;;;;7.20;4.15;;;16.50;82.70;;;;;;5063673;28;20373;-48
2023/07/08 01:13:46;;;;;;;6.28;5.05;;;16.50;82.60;;;;;;5071396;28;20024;-46
2023/07/08 01:16:15;;;;;;;10.52;5.10;;;16.50;82.90;;;;;;5069364;28;20029;-47
2023/07/08 01:18:42;;;;;;;6.03;4.75;;;16.50;83.10;;;;;;5074535;28;20048;-47
2023/07/08 01:21:31;;;;;;;10.48;5.32;;;16.50;83.30;;;;;;5072105;28;20044;-48
2023/07/08 01:24:00;;;;;;;7.30;5.03;;;16.50;83.50;;;;;;5073185;28;20027;-47
2023/07/08 01:26:31;;;;;;;6.07;4.97;;;16.50;83.50;;;;;;5050701;28;20031;-53
2023/07/08 01:28:59;;;;;;;7.88;5.53;;;16.50;83.70;;;;;;5056068;28;20370;-47
2023/07/08 01:31:27;;;;;;;9.30;5.55;;;16.50;83.90;;;;;;5072292;28;20116;-49
2023/07/08 01:33:54;;;;;;;6.97;5.45;;;16.40;83.90;;;;;;5074169;28;20024;-47
2023/07/08 01:36:23;;;;;;;6.30;4.85;;;16.40;83.90;;;;;;5062403;28;20095;-46
2023/07/08 01:38:49;;;;;;;6.67;5.60;;;16.40;84.10;;;;;;5057145;28;20048;-48
2023/07/08 01:41:16;;;;;;;6.57;4.63;;;16.40;84.20;;;;;;5073648;28;20098;-47
2023/07/08 01:43:44;;;;;;;8.20;5.43;;;16.40;84.10;;;;;;5068179;28;20043;-47
2023/07/08 01:46:21;;;;;;;7.57;5.40;;;16.40;84.10;;;;;;5073777;28;20028;-47
2023/07/08 01:48:59;;;;;;;9.25;6.00;;;16.40;84.20;;;;;;5056624;28;20024;-49
2023/07/08 01:51:27;;;;;;;7.78;5.35;;;16.30;84.00;;;;;;5072599;28;20036;-47
2023/07/08 01:53:54;;;;;;;6.97;5.45;;;16.30;84.20;;;;;;5073556;28;20037;-47
2023/07/08 01:56:21;;;;;;;8.90;6.15;;;16.30;84.30;;;;;;5073512;28;20078;-50
2023/07/08 01:58:48;;;;;;;9.48;6.47;;;16.20;84.30;;;;;;5061110;28;20039;-47
2023/07/08 02:01:15;;;;;;;7.05;4.60;;;16.20;84.20;;;;;;5073555;28;20115;-47
2023/07/08 02:03:42;;;;;;;7.63;5.78;;;16.10;84.60;;;;;;5070427;28;20461;-46
2023/07/08 02:06:11;;;;;;;10.30;5.57;;;16.10;84.50;;;;;;5057059;28;20107;-49
2023/07/08 02:08:37;;;;;;;7.25;5.68;;;16.00;84.60;;;;;;5070310;28;20465;-47
2023/07/08 02:11:04;;;;;;;6.85;5.78;;;16.10;84.70;;;;;;5072171;28;20040;-47
2023/07/08 02:13:30;;;;;;;8.48;6.15;;;16.00;84.80;;;;;;5066239;28;20032;-47
2023/07/08 02:15:57;;;;;;;8.63;6.28;;;16.00;84.70;;;;;;5073564;28;20035;-48
2023/07/08 02:18:24;;;;;;;9.70;6.97;;;16.00;84.90;;;;;;5061144;28;20067;-48
2023/07/08 02:20:51;;;;;;;9.25;6.47;;;16.00;84.90;;;;;;5073041;28;20460;-47
2023/07/08 02:23:24;;;;;;;9.27;6.28;;;16.00;84.80;;;;;;5058213;28;20028;-49
2023/07/08 02:25:54;;;;;;;9.13;5.78;;;16.10;84.60;;;;;;5070086;28;20043;-47
2023/07/08 02:28:22;;;;;;;11.10;6.35;;;16.10;84.50;;;;;;5071780;28;20029;-48
2023/07/08 02:30:48;;;;;;;7.72;5.03;;;16.10;84.30;;;;;;5055052;28;20035;-47
2023/07/08 02:33:17;;;;;;;7.85;5.05;;;16.10;84.40;;;;;;5072602;28;20461;-47
2023/07/08 02:35:44;;;;;;;7.60;5.70;;;16.10;84.40;;;;;;5072515;28;20062;-47
2023/07/08 02:38:11;;;;;;;8.90;5.80;;;16.10;84.60;;;;;;5070124;28;20028;-48
2023/07/08 02:40:39;;;;;;;7.10;5.80;;;16.10;84.70;;;;;;5071496;28;20035;-48
2023/07/08 02:43:06;;;;;;;8.00;6.07;;;16.10;84.80;;;;;;5071281;28;20059;-47
2023/07/08 02:45:33;;;;;;;8.93;6.28;;;16.10;85.00;;;;;;5067754;28;20077;-47
2023/07/08 02:47:59;;;;;;;9.73;6.28;;;16.10;85.20;;;;;;5058310;28;20389;-47
2023/07/08 02:50:28;;;;;;;7.13;5.35;;;16.10;85.10;;;;;;5073747;28;20353;-48
2023/07/08 02:52:56;;;;;;;11.13;5.97;;;16.10;85.10;;;;;;5071769;28;20056;-47
2023/07/08 02:55:22;;;;;;;7.63;6.80;;;16.10;85.00;;;;;;5053947;28;20036;-48
2023/07/08 02:57:52;;;;;;;10.60;6.32;;;16.10;85.00;;;;;;5051322;28;20055;-46
2023/07/08 03:00:19;;;;;;;8.65;5.57;;;16.10;85.00;;;;;;5071303;28;20039;-50
2023/07/08 03:02:49;;;;;;;10.45;7.32;;;16.10;85.00;;;;;;5072687;28;20028;-47
2023/07/08 03:05:16;;;;;;;9.57;6.90;;;16.10;85.00;;;;;;5072047;28;20025;-46
2023/07/08 03:07:45;;;;;;;7.40;6.28;;;16.10;85.00;;;;;;5072011;28;20048;-47
2023/07/08 03:10:11;;;;;;;10.73;6.72;;;16.10;85.10;;;;;;5061231;28;20112;-47
2023/07/08 03:12:38;;;;;;;8.00;6.82;;;16.10;85.10;;;;;;5064818;28;20450;-47
2023/07/08 03:15:05;;;;;;;8.88;7.65;;;16.10;85.00;;;;;;5072314;28;20392;-50
2023/07/08 03:17:31;;;;;;;10.05;6.72;;;16.10;84.90;;;;;;5071601;28;20051;-50
2023/07/08 03:19:59;;;;;;;8.73;6.97;;;16.10;84.80;;;;;;5071915;28;20021;-47
2023/07/08 03:22:29;;;;;;;11.00;7.28;;;16.10;84.90;;;;;;5071834;28;20052;-48
2023/07/08 03:24:56;;;;;;;10.07;7.05;;;16.20;84.90;;;;;;5069325;28;20032;-49
2023/07/08 03:27:28;;;;;;;10.75;7.68;;;16.20;85.00;;;;;;5071355;28;20027;-47
2023/07/08 03:29:55;;;;;;;8.23;6.95;;;16.20;85.00;;;;;;5061841;28;20025;-47
2023/07/08 03:32:25;;;;;;;10.20;7.30;;;16.20;85.00;;;;;;5068107;28;20044;-47
2023/07/08 03:34:52;;;;;;;10.10;6.28;;;16.20;84.90;;;;;;5065061;28;20080;-48
2023/07/08 03:37:19;;;;;;;9.07;7.10;;;16.20;84.70;;;;;;5062714;28;20029;-47
2023/07/08 03:39:47;;;;;;;10.43;6.30;;;16.30;84.50;;;;;;5068830;28;20032;-47
2023/07/08 03:42:12;;;;;;;8.13;6.88;;;16.20;84.40;;;;;;5051869;28;20107;-47
2023/07/08 03:44:41;;;;;;;9.57;6.68;;;16.30;84.30;;;;;;5063089;28;20105;-47
2023/07/08 03:47:08;;;;;;;9.32;5.82;;;16.30;84.20;;;;;;5069175;28;20028;-47
2023/07/08 03:49:36;;;;;;;8.40;6.28;;;16.30;84.10;;;;;;5065370;28;20037;-47
2023/07/08 03:52:03;;;;;;;12.15;6.28;;;16.30;84.10;;;;;;5070757;28;20430;-47
2023/07/08 03:54:30;;;;;;;11.07;6.50;;;16.30;84.30;;;;;;5070149;28;20501;-47
2023/07/08 03:56:57;;;;;;;8.55;7.65;;;16.40;84.50;;;;;;5054914;28;20068;-49
2023/07/08 03:59:24;;;;;;;7.80;7.00;;;16.40;84.50;;;;;;5062538;28;20029;-46
2023/07/08 04:01:49;;;;;;;8.10;6.05;;;16.40;84.60;;;;;;5067128;28;20044;-50
2023/07/08 04:04:16;;;;;;;7.57;6.63;;;16.40;84.50;;;;;;5069897;28;20067;-46
2023/07/08 04:06:46;;;;;;;8.38;6.28;;;16.40;84.50;;;;;;5072160;28;20083;-47
2023/07/08 04:09:13;;;;;;;10.77;6.43;;;16.40;84.60;;;;;;5065711;28;20531;-48
2023/07/08 04:11:39;;;;;;;10.98;7.03;;;16.40;84.50;;;;;;5070912;28;20025;-47
2023/07/08 04:14:09;;;;;;;10.40;6.53;;;16.50;84.40;;;;;;5071046;28;20024;-47
2023/07/08 04:16:56;;;;;;;;;;;16.50;84.30;;;;;;5069806;28;20036;-47
2023/07/08 04:19:24;;;;;;;7.18;5.97;;;16.50;84.30;;;;;;5066876;28;19927;-47
2023/07/08 04:21:54;;;;;;;9.40;6.38;;;16.60;84.10;;;;;;5071030;28;20574;-47
2023/07/08 04:24:20;;;;;;;8.98;5.70;;;16.60;84.10;;;;;;5058941;28;20058;-47
2023/07/08 04:26:48;;;;;;;10.98;6.28;;;16.70;84.00;;;;;;5065135;28;20021;-47
2023/07/08 04:29:17;;;;;;;9.25;5.63;;;16.70;83.70;;;;;;5060807;28;20033;-47
2023/07/08 04:31:44;;;;;;;6.55;5.38;;;16.80;83.10;;;;;;5050969;28;20066;-47
2023/07/08 04:34:13;;;;;;;7.63;5.65;;;16.90;82.60;;;;;;5051161;28;20040;-48
2023/07/08 04:36:40;;;;;;;12.57;6.32;;;16.90;82.50;;;;;;5052445;28;20021;-46
2023/07/08 04:39:09;;;;;;;8.93;5.45;;;17.00;81.70;;;;;;5052727;28;20162;-47
2023/07/08 04:41:40;;;;;;;10.43;5.47;;;17.10;80.80;;;;;;5051392;28;20028;-47
2023/07/08 04:44:08;;;;;;;7.63;4.90;;;17.10;79.50;;;;;;5077139;28;20433;-47
2023/07/08 04:46:44;;;;;;;9.15;5.03;;;17.40;78.20;;;;;;5071044;28;20354;-47
2023/07/08 04:49:11;;;;;;;6.22;4.80;;;17.40;77.80;;;;;;5067194;28;20025;-47
2023/07/08 04:51:40;;;;;;;7.72;5.65;;;17.50;78.00;;;;;;5068150;28;20021;-47
2023/07/08 04:54:10;;;;;;;8.13;5.43;;;17.60;77.80;;;;;;5068114;28;20025;-49
2023/07/08 04:56:54;;;;;;;12.32;5.00;;;17.70;77.60;;;;;;5068269;28;20040;-47
2023/07/08 04:59:23;;;;;;;7.68;5.07;;;17.70;78.10;;;;;;5060525;28;20067;-49
2023/07/08 05:01:54;;;;;;;6.50;4.88;;;17.70;77.80;;;;;;5070643;28;20036;-48
2023/07/08 05:04:22;;;;;;;5.00;4.10;;;17.70;77.80;;;;;;5056186;28;20407;-48
2023/07/08 05:06:49;;;;;;;11.25;6.07;;;17.70;78.00;;;;;;5067814;28;20024;-49
2023/07/08 05:09:16;;;;;;;6.60;4.45;;;17.70;78.10;;;;;;5072187;28;20024;-48
2023/07/08 05:11:44;;;;;;;6.90;4.82;;;17.70;77.40;;;;;;5072896;28;20066;-50
2023/07/08 05:14:15;;;;;;;9.07;5.63;;;17.80;77.60;;;;;;5074319;28;20048;-50
2023/07/08 05:16:41;;;;;;;8.02;4.57;;;17.80;77.20;;;;;;5057255;28;20058;-48
2023/07/08 05:19:09;;;;;;;11.45;5.18;;;17.80;77.30;;;;;;5069092;28;20166;-48
2023/07/08 05:21:41;;;;;;;7.03;5.03;;;17.90;77.60;;;;;;5072013;28;21859;-48
2023/07/08 05:24:10;;;;;;;9.73;5.60;;;17.90;77.40;;;;;;5070917;28;20028;-48
2023/07/08 05:26:39;;;;;;;7.28;4.38;;;17.90;77.00;;;;;;5059604;28;20035;-48
2023/07/08 05:29:06;;;;;;;8.87;5.43;;;17.90;76.60;;;;;;5068902;28;20033;-49
2023/07/08 05:31:34;;;;;;;8.35;5.22;;;17.90;77.00;;;;;;5064868;28;20032;-47
2023/07/08 05:34:01;;;;;;;6.35;5.35;;;18.00;77.30;;;;;;5070109;28;20032;-48
2023/07/08 05:36:28;;;;;;;7.32;5.38;;;18.00;77.40;;;;;;5066530;28;20476;-47
2023/07/08 05:38:54;;;;;;;9.15;5.20;;;18.10;77.50;;;;;;5055552;28;20033;-48
2023/07/08 05:41:21;;;;;;;6.25;4.32;;;18.10;77.30;;;;;;5073667;28;20028;-48
2023/07/08 05:43:48;;;;;;;6.22;4.75;;;18.10;76.90;;;;;;5061243;28;20461;-49
2023/07/08 05:46:15;;;;;;;6.93;4.75;;;18.10;76.90;;;;;;5052131;28;20055;-47
2023/07/08 05:48:42;;;;;;;8.25;4.95;;;18.10;76.80;;;;;;5061109;28;20330;-48
2023/07/08 05:51:08;;;;;;;5.60;4.40;;;18.20;77.30;;;;;;5070260;28;20028;-48
2023/07/08 05:53:35;;;;;;;7.70;4.65;;;18.30;76.90;;;;;;5072861;28;20499;-48
2023/07/08 05:56:04;;;;;;;10.40;5.07;;;18.40;76.60;;;;;;5070539;28;20564;-48
2023/07/08 05:58:31;;;;;;;7.22;4.75;;;18.60;76.40;;;;;;5073252;28;20347;-47
2023/07/08 06:00:58;;;;;;;8.18;4.30;;;18.70;75.70;;;;;;5053534;28;20527;-47
2023/07/08 06:03:26;;;;;;;6.97;4.60;;;18.90;75.20;;;;;;5060686;28;20081;-51
2023/07/08 06:05:55;;;;;;;7.80;4.07;;;19.20;73.90;;;;;;5069331;28;20021;-48
2023/07/08 06:08:22;;;;;;;8.73;4.43;;;19.40;73.90;;;;;;5072831;28;20036;-50
2023/07/08 06:10:49;;;;;;;6.15;3.75;;;19.40;74.00;;;;;;5071476;28;20031;-48
2023/07/08 06:13:15;;;;;;;7.45;3.72;;;19.50;73.20;;;;;;5055147;28;20047;-48
2023/07/08 06:15:45;;;;;;;10.63;4.85;;;19.60;72.60;;;;;;5054780;28;20029;-49
2023/07/08 06:18:12;;;;;;;6.38;3.70;;;19.80;73.10;;;;;;5074276;28;20048;-49
2023/07/08 06:20:39;;;;;;;6.22;3.80;;;20.10;72.80;;;;;;5070892;28;20039;-49
2023/07/08 06:23:05;;;;;;;5.55;3.50;;;20.30;71.30;;;;;;5072112;28;20025;-49
2023/07/08 06:25:33;;;;;;;8.52;3.85;;;20.40;70.90;;;;;;5072313;28;20107;-48
2023/07/08 06:28:00;;;;;;;6.22;3.55;;;20.60;70.90;;;;;;5072183;28;20488;-50
2023/07/08 06:30:25;;;;;;;4.65;3.20;;;20.60;70.60;;;;;;5070188;28;20031;-49
2023/07/08 06:32:53;;;;;;;5.13;3.20;;;20.60;71.10;;;;;;5073935;28;20032;-51
2023/07/08 06:35:18;;;;;;;5.90;4.25;;;20.60;71.60;;;;;;5070175;28;20028;-52
2023/07/08 06:37:45;;;;;;;6.90;3.65;;;20.70;71.30;;;;;;5055047;28;20115;-48
2023/07/08 06:40:12;;;;;;;8.27;4.20;;;20.70;71.70;;;;;;5064146;28;20041;-51
2023/07/08 06:42:39;;;;;;;7.03;3.65;;;20.80;71.80;;;;;;5071680;28;20040;-48
2023/07/08 06:45:05;;;;;;;6.18;3.55;;;20.80;71.70;;;;;;5068333;28;20021;-48
2023/07/08 06:47:32;;;;;;;6.35;3.25;;;20.90;72.20;;;;;;5070561;28;20032;-48
2023/07/08 06:49:58;;;;;;;11.30;3.92;;;20.90;72.80;;;;;;5070505;28;20017;-49
2023/07/08 06:52:25;;;;;;;5.80;3.40;;;20.90;71.90;;;;;;5072421;28;20453;-49
2023/07/08 06:54:51;;;;;;;6.53;4.05;;;20.90;71.90;;;;;;5051401;28;20037;-49
2023/07/08 06:57:18;;;;;;;8.07;3.38;;;21.00;72.80;;;;;;5069981;28;20154;-49
2023/07/08 06:59:47;;;;;;;5.35;3.80;;;21.10;71.80;;;;;;5071695;28;20036;-48
2023/07/08 07:02:16;;;;;;;5.20;3.35;;;21.30;71.30;;;;;;5068110;28;20684;-49
2023/07/08 07:04:43;;;;;;;6.32;3.30;;;21.20;70.70;;;;;;5069230;28;20041;-49
2023/07/08 07:07:10;;;;;;;6.90;3.72;;;21.30;70.50;;;;;;5067422;28;20040;-52
2023/07/08 07:09:37;;;;;;;7.20;3.92;;;21.30;70.10;;;;;;5065593;28;20028;-48
2023/07/08 07:12:07;;;;;;;5.43;2.40;;;21.40;70.30;;;;;;5052062;28;20341;-48
2023/07/08 07:14:34;;;;;;;6.57;3.22;;;21.50;69.70;;;;;;5070602;28;20099;-51
2023/07/08 07:17:02;;;;;;;5.15;2.72;;;21.60;69.30;;;;;;5067255;28;20037;-48
2023/07/08 07:19:28;;;;;;;6.05;2.97;;;21.70;69.10;;;;;;5066496;28;20056;-50
2023/07/08 07:21:55;;;;;;;5.43;3.17;;;21.80;69.80;;;;;;5069172;28;20033;-49
2023/07/08 07:24:23;;;;;;;5.13;2.83;;;21.90;69.00;;;;;;5069120;28;20028;-53
2023/07/08 07:26:51;;;;;;;5.90;3.40;;;22.20;67.30;;;;;;5060266;28;20035;-51
2023/07/08 07:29:27;;;;;;;4.90;3.17;;;22.60;66.90;;;;;;5072383;28;20032;-48
2023/07/08 07:31:54;;;;;;;7.30;2.60;;;22.90;63.70;;;;;;5067041;28;20082;-51
2023/07/08 07:34:21;;;;;;;7.10;3.20;;;23.40;64.40;;;;;;5047707;28;20036;-49
2023/07/08 07:36:50;;;;;;;4.75;2.42;;;23.80;62.80;;;;;;5068103;28;20040;-52
2023/07/08 07:39:17;;;;;;;6.97;2.85;;;24.30;62.00;;;;;;5065610;28;20427;-49
2023/07/08 07:41:43;;;;;;;6.18;2.55;;;24.50;59.70;;;;;;5071630;28;20032;-50
2023/07/08 07:44:09;;;;;;;4.00;2.60;;;24.70;58.90;;;;;;5065099;28;20674;-50
2023/07/08 07:46:36;;;;;;;6.10;3.15;;;24.90;58.30;;;;;;5066944;28;20442;-50
2023/07/08 07:49:01;;;;;;;4.47;2.60;;;25.30;59.10;;;;;;5057901;28;20450;-50
2023/07/08 07:51:28;;;;;;;6.13;2.83;;;25.50;57.70;;;;;;5050807;28;20036;-50
2023/07/08 07:53:55;;;;;;;5.97;2.60;;;26.00;57.00;;;;;;5068525;28;20442;-49
2023/07/08 07:56:22;;;;;;;5.60;3.13;;;26.00;55.90;;;;;;5067789;28;20042;-49
2023/07/08 07:58:48;;;;;;;5.03;2.85;;;26.20;56.00;;;;;;5069239;28;20357;-50
2023/07/08 08:01:19;;;;;;;7.78;2.70;;;26.40;56.60;;;;;;5071081;28;20020;-49
2023/07/08 08:03:46;;;;;;;5.70;2.78;;;26.60;54.80;;;;;;5070157;28;20465;-51
2023/07/08 08:06:17;;;;;;;3.40;2.50;;;26.90;56.10;;;;;;5068419;28;20029;-49
2023/07/08 08:08:43;;;;;;;6.60;3.00;;;27.20;54.70;;;;;;5068486;28;20025;-53
2023/07/08 08:11:09;;;;;;;3.70;2.50;;;27.10;54.90;;;;;;5069949;28;20012;-51
2023/07/08 08:13:35;;;;;;;4.82;2.88;;;27.30;54.80;;;;;;5068685;28;20128;-50
2023/07/08 08:16:03;;;;;;;4.75;2.83;;;27.50;54.30;;;;;;5069028;28;20442;-50
2023/07/08 08:18:32;;;;;;;7.03;2.72;;;27.60;54.40;;;;;;5069254;28;20059;-49
2023/07/08 08:21:00;;;;;;;6.30;2.20;;;27.50;54.50;;;;;;5049856;28;20033;-49
2023/07/08 08:23:27;;;;;;;3.67;2.63;;;27.70;54.30;;;;;;5053719;28;20107;-56
2023/07/08 08:25:52;;;;;;;6.72;2.83;;;27.90;52.90;;;;;;5067921;28;20100;-49
2023/07/08 08:28:20;;;;;;;5.03;2.92;;;27.40;50.80;;;;;;5070565;28;20497;-49
2023/07/08 08:30:51;;;;;;;8.60;2.80;;;27.40;51.10;;;;;;5051144;28;20114;-53
2023/07/08 08:33:19;;;;;;;5.70;3.15;;;27.80;53.50;;;;;;5067869;28;20024;-49
2023/07/08 08:35:49;;;;;;;7.72;3.10;;;28.10;50.90;;;;;;5056022;28;20354;-50
2023/07/08 08:38:17;;;;;;;6.00;2.75;;;28.20;52.50;;;;;;5056191;28;20048;-53
2023/07/08 08:40:44;;;;;;;3.67;2.03;;;28.30;52.10;;;;;;5075871;28;20109;-55
2023/07/08 08:43:22;;;;;;;5.43;2.50;;;28.40;53.70;;;;;;5053388;28;20037;-54
2023/07/08 08:46:15;;;;;;;3.72;2.58;;;28.90;53.30;;;;;;5068038;28;20091;-50
2023/07/08 08:49:11;;;;;;;4.65;2.42;;;28.90;53.40;;;;;;5064290;28;20736;-52
2023/07/08 08:51:38;;;;;;;5.75;3.30;;;29.30;53.40;;;;;;5049894;28;20040;-53
2023/07/08 08:54:04;;;;;;;6.00;2.60;;;29.50;52.40;;;;;;5073393;28;20040;-49
2023/07/08 08:57:05;;;;;;;7.55;2.85;;;29.50;51.80;;;;;;5064836;28;20108;-52
2023/07/08 08:59:50;;;;;;;4.15;2.78;;;29.50;51.90;;;;;;5072267;28;20071;-50
2023/07/08 09:02:40;;;;;;;7.20;2.95;;;29.70;53.00;;;;;;5070048;28;20462;-55
2023/07/08 09:05:12;;;;;;;4.18;2.70;;;29.80;52.80;;;;;;5057203;28;20024;-54
2023/07/08 09:08:05;;;;;;;5.57;3.22;;;29.80;51.10;;;;;;5071131;28;20358;-53
2023/07/08 09:10:51;;;;;;;4.30;2.38;;;29.30;50.50;;;;;;5070773;28;20048;-53
2023/07/08 09:13:33;;;;;;;5.20;2.80;;;29.50;51.90;;;;;;5073225;28;20133;-52
2023/07/08 09:16:29;;;;;;;4.45;2.95;;;29.80;52.80;;;;;;5072386;28;20033;-50
2023/07/08 09:19:32;;;;;;;5.22;3.17;;;29.90;52.30;;;;;;5063387;28;20374;-51
2023/07/08 09:22:10;;;;;;;4.07;2.67;;;30.20;53.90;;;;;;5070421;28;20044;-51
2023/07/08 09:25:03;;;;;;;6.43;3.10;;;30.00;52.50;;;;;;5063064;28;20045;-50
2023/07/08 09:27:29;;;;;;;4.97;2.50;;;30.30;51.90;;;;;;5063048;28;20028;-49
2023/07/08 09:29:56;;;;;;;4.63;2.83;;;30.10;50.50;;;;;;5074989;28;20024;-53
2023/07/08 09:32:28;;;;;;;5.55;3.30;;;30.30;51.40;;;;;;5056105;28;20024;-56
2023/07/08 09:35:09;;;;;;;5.13;3.30;;;30.30;51.80;;;;;;5050224;28;20462;-53
2023/07/08 09:37:38;;;;;;;6.90;3.33;;;30.40;50.80;;;;;;5056621;28;20603;-56
2023/07/08 09:40:30;;;;;;;5.40;2.45;;;30.30;49.20;;;;;;5063900;28;20035;-51
2023/07/08 09:43:16;;;;;;;6.45;2.88;;;30.40;49.50;;;;;;5053971;28;20102;-51
2023/07/08 09:45:54;;;;;;;5.78;3.45;;;30.20;50.00;;;;;;5070161;28;20408;-57
2023/07/08 09:48:35;;;;;;;4.85;3.17;;;30.30;49.00;;;;;;5065382;28;20107;-54
2023/07/08 09:51:08;;;;;;;5.45;2.90;;;30.30;50.90;;;;;;5042824;28;20043;-52
2023/07/08 09:53:33;;;;;;;4.97;3.15;;;30.20;50.60;;;;;;5065517;28;20019;-54
2023/07/08 09:56:02;;;;;;;3.35;2.53;;;30.20;49.20;;;;;;5067389;28;20024;-51
2023/07/08 09:58:49;;;;;;;4.35;2.95;;;30.20;52.50;;;;;;5069432;28;20039;-57
2023/07/08 10:01:23;;;;;;;5.88;3.25;;;30.40;48.60;;;;;;5068552;28;20143;-57
2023/07/08 10:03:49;;;;;;;5.25;2.90;;;30.40;49.70;;;;;;5051890;28;20169;-52
2023/07/08 10:06:27;;;;;;;5.03;3.15;;;30.30;50.30;;;;;;5067100;28;20096;-49
2023/07/08 10:08:59;;;;;;;3.95;2.90;;;30.30;49.60;;;;;;5058219;28;20029;-50
2023/07/08 10:11:33;;;;;;;5.43;3.45;;;30.40;49.50;;;;;;5066468;28;20100;-54
2023/07/08 10:14:27;;;;;;;4.68;2.80;;;30.40;50.10;;;;;;5065317;28;20063;-50
2023/07/08 10:16:53;;;;;;;7.30;3.40;;;30.30;50.20;;;;;;5040377;28;20078;-50
2023/07/08 10:19:23;;;;;;;5.32;3.00;;;30.20;49.70;;;;;;5068539;28;20047;-52
2023/07/08 10:22:08;;;;;;;5.25;3.30;;;30.20;51.50;;;;;;5066853;28;20059;-51
2023/07/08 10:25:00;;;;;;;4.35;2.85;;;30.40;49.30;;;;;;5066870;28;20036;-56
2023/07/08 10:28:04;;;;;;;4.88;2.65;;;30.70;48.50;;;;;;5068285;28;20036;-52
2023/07/08 10:30:50;;;;;;;6.55;3.50;;;30.70;50.10;;;;;;5066950;28;20460;-53
2023/07/08 10:33:33;;;;;;;10.52;3.15;;;30.50;48.70;;;;;;5064598;28;20059;-51
2023/07/08 10:36:21;;;;;;;6.53;2.92;;;30.70;51.10;;;;;;5063682;28;20456;-52
2023/07/08 10:39:16;;;;;;;7.07;3.30;;;30.70;50.40;;;;;;5062823;28;20066;-55
2023/07/08 10:42:00;;;;;;;4.70;2.78;;;30.50;49.70;;;;;;5063236;28;20085;-53
2023/07/08 10:44:49;;;;;;;6.03;3.05;;;30.60;50.90;;;;;;5069603;28;20502;-51
2023/07/08 10:47:35;;;;;;;4.25;2.88;;;30.60;47.80;;;;;;5071384;28;20024;-55
2023/07/08 10:50:25;;;;;;;4.82;2.75;;;30.60;47.50;;;;;;5067933;28;20036;-55
2023/07/08 10:53:09;;;;;;;4.60;3.08;;;30.50;48.60;;;;;;5065382;28;20040;-54
2023/07/08 10:55:59;;;;;;;4.15;2.75;;;30.60;50.50;;;;;;5068889;28;20108;-55
2023/07/08 10:58:46;;;;;;;7.05;2.80;;;30.90;48.70;;;;;;5067445;28;20029;-53
2023/07/08 11:01:39;;;;;;;5.32;3.15;;;30.80;47.70;;;;;;5067616;28;20031;-53
2023/07/08 11:04:26;;;;;;;5.47;2.95;;;30.40;50.40;;;;;;5066848;28;20039;-56
2023/07/08 11:07:41;;;;;;;5.03;2.92;;;30.40;48.90;;;;;;5063826;28;20137;-55
2023/07/08 11:10:29;;;;;;;4.43;3.22;;;30.50;49.50;;;;;;5030296;28;20111;-53
2023/07/08 11:13:26;;;;;;;3.70;2.85;;;30.50;49.00;;;;;;5064180;28;20067;-50
2023/07/08 11:16:22;;;;;;;3.40;2.70;;;30.60;47.00;;;;;;5055081;28;20040;-53
2023/07/08 11:18:59;;;;;;;5.32;3.00;;;30.40;49.00;;;;;;5066715;28;20069;-57
2023/07/08 11:21:37;;;;;;;6.30;3.17;;;30.50;49.00;;;;;;5069674;28;20036;-51
2023/07/08 11:24:25;;;;;;;6.00;2.55;;;30.50;51.40;;;;;;5066515;28;20025;-55
2023/07/08 11:27:24;;;;;;;5.85;3.58;;;30.70;48.60;;;;;;5067757;28;20027;-50
2023/07/08 11:30:02;;;;;;;3.70;2.63;;;30.50;47.60;;;;;;5051924;28;20035;-56
2023/07/08 11:32:31;;;;;;;3.88;2.45;;;30.60;51.10;;;;;;5071058;28;20492;-56
2023/07/08 11:34:59;;;;;;;8.30;4.38;;;30.70;51.80;;;;;;5069098;28;20449;-56
2023/07/08 11:37:28;;;;;;;4.13;2.67;;;30.90;50.40;;;;;;5065350;28;20025;-56
2023/07/08 11:39:59;;;;;;;5.95;2.63;;;31.10;49.00;;;;;;5066942;28;20032;-53
2023/07/08 11:42:43;;;;;;;4.68;2.72;;;31.10;47.20;;;;;;5054537;28;20090;-51
2023/07/08 11:45:27;;;;;;;4.63;3.25;;;30.90;47.80;;;;;;5064669;28;20020;-52
2023/07/08 11:48:05;;;;;;;7.65;3.53;;;30.80;49.40;;;;;;5067228;28;20104;-54
2023/07/08 11:50:46;;;;;;;3.87;2.73;;;30.90;52.30;;;;;;5064075;28;20029;-50
2023/07/08 11:53:34;;;;;;;6.43;3.47;;;31.10;46.70;;;;;;5066833;28;20031;-53
2023/07/08 11:56:07;;;;;;;4.93;2.33;;;30.80;48.50;;;;;;5059040;28;20037;-51
2023/07/08 11:58:52;;;;;;;4.78;3.03;;;30.60;50.00;;;;;;5070614;28;20059;-51
2023/07/08 12:01:40;;;;;;;5.50;3.63;;;30.80;50.10;;;;;;5065446;28;20114;-52
2023/07/08 12:04:12;;;;;;;5.80;3.35;;;30.60;48.00;;;;;;5048905;28;20063;-50
2023/07/08 12:07:06;;;;;;;4.70;2.90;;;30.60;49.80;;;;;;5058277;28;20029;-49
2023/07/08 12:10:13;;;;;;;7.32;3.53;;;30.50;49.50;;;;;;5049585;28;20591;-51
2023/07/08 12:12:44;;;;;;;3.97;2.72;;;30.30;49.40;;;;;;5067664;28;20040;-53
2023/07/08 12:15:13;;;;;;;6.47;3.17;;;30.30;52.70;;;;;;5054372;28;20450;-51
2023/07/08 12:17:41;;;;;;;5.43;3.33;;;30.30;50.70;;;;;;5048710;28;20136;-50
2023/07/08 12:20:23;;;;;;;4.95;2.90;;;30.20;51.60;;;;;;5048337;28;20049;-51
2023/07/08 12:22:51;;;;;;;6.10;3.35;;;30.00;54.00;;;;;;5051572;28;20379;-57
2023/07/08 12:25:23;;;;;;;7.65;3.67;;;30.00;53.80;;;;;;5047818;28;20021;-51
2023/07/08 12:27:50;;;;;;;5.25;3.80;;;29.80;54.10;;;;;;5053392;28;20017;-57
2023/07/08 12:30:17;;;;;;;4.07;3.08;;;29.60;54.30;;;;;;5055989;28;20398;-53
2023/07/08 12:32:44;;;;;;;5.10;3.55;;;29.50;54.50;;;;;;5055791;28;20029;-50
2023/07/08 12:35:24;;;;;;;5.43;3.33;;;29.30;56.10;;;;;;5055039;28;20137;-52
2023/07/08 12:37:56;;;;;;;5.40;3.53;;;29.30;56.50;;;;;;5036105;28;20041;-56
2023/07/08 12:40:25;;;;;;;7.30;3.75;;;29.30;56.80;;;;;;5051374;28;20032;-57
2023/07/08 12:42:50;;;;;;;6.80;3.53;;;29.20;55.10;;;;;;5035919;28;20029;-56
2023/07/08 12:45:21;;;;;;;7.28;4.18;;;29.10;55.30;;;;;;5032688;28;20798;-50
2023/07/08 12:47:48;;;;;;;5.20;3.05;;;29.00;58.40;;;;;;5034023;28;20500;-57
2023/07/08 12:50:15;;;;;;;4.75;2.92;;;29.10;54.90;;;;;;5048994;28;20028;-50
2023/07/08 12:52:45;;;;;;;6.15;3.60;;;29.00;55.20;;;;;;5050225;28;20025;-53
2023/07/08 12:55:11;;;;;;;;;;;28.90;55.80;;;;;;5049693;28;20036;-54
2023/07/08 12:57:42;;;;;;;6.45;3.63;;;28.90;55.40;;;;;;5050008;28;19908;-52
2023/07/08 13:00:15;;;;;;;7.40;3.40;;;29.00;56.60;;;;;;5044396;28;20083;-53
2023/07/08 13:02:46;;;;;;;6.00;3.40;;;29.00;55.20;;;;;;5023985;28;20044;-54
2023/07/08 13:05:14;;;;;;;5.35;3.00;;;28.90;54.70;;;;;;5035571;28;20804;-52
2023/07/08 13:07:45;;;;;;;5.32;3.70;;;28.80;58.10;;;;;;5047586;28;20025;-55
2023/07/08 13:10:24;;;;;;;4.72;3.33;;;28.80;55.80;;;;;;5051798;28;20454;-51